Time;durP1;ratioP1;P1;durP2;ratioP2;P2;SDS_P1;SDS_P2;PMS_P1;PMS_P2;Temp;Humidity;BMP_temperature;BMP_pressure;BME280_temperature;BME280_humidity;BME280_pressure;Samples;Min_cycle;Max_cycle;Signal;HPM_P1;HPM_P2
2022/06/05 00:01:36;;;;;;;12.05;8.70;;;11.40;99.90;;;;;;5111783;28;20070;-60
2022/06/05 00:04:17;;;;;;;;;;;11.40;99.90;;;;;;5112688;28;20415;-60
2022/06/05 00:07:14;;;;;;;14.35;9.23;;;11.30;99.90;;;;;;5111511;28;19919;-59
2022/06/05 00:09:49;;;;;;;13.73;9.15;;;11.30;99.90;;;;;;5111880;28;20046;-59
2022/06/05 00:12:18;;;;;;;16.25;9.57;;;11.30;99.90;;;;;;5111242;28;20445;-59
2022/06/05 00:14:44;;;;;;;13.27;10.02;;;11.30;99.90;;;;;;5111667;28;20051;-59
2022/06/05 00:17:16;;;;;;;13.70;9.98;;;11.40;99.90;;;;;;5093266;28;20090;-59
2022/06/05 00:19:45;;;;;;;13.90;9.73;;;11.40;99.90;;;;;;5093583;28;20061;-59
2022/06/05 00:22:11;;;;;;;14.43;10.60;;;11.40;99.90;;;;;;5111362;28;20047;-60
2022/06/05 00:24:37;;;;;;;15.15;10.75;;;11.40;99.90;;;;;;5093707;28;20071;-59
2022/06/05 00:27:28;;;;;;;15.48;11.18;;;11.40;99.90;;;;;;5076764;28;20043;-60
2022/06/05 00:30:23;;;;;;;12.45;9.63;;;11.40;99.90;;;;;;5111661;28;20369;-59
2022/06/05 00:32:57;;;;;;;13.25;10.63;;;11.30;99.90;;;;;;5111372;28;20086;-61
2022/06/05 00:35:25;;;;;;;14.27;10.57;;;11.30;99.90;;;;;;5093188;28;20047;-60
2022/06/05 00:38:06;;;;;;;18.90;11.05;;;11.30;99.90;;;;;;5093801;28;20091;-59
2022/06/05 00:41:09;;;;;;;13.25;9.73;;;11.30;99.90;;;;;;5093158;28;20104;-59
2022/06/05 00:43:36;;;;;;;17.38;10.50;;;11.30;99.90;;;;;;5111703;28;20055;-59
2022/06/05 00:46:02;;;;;;;15.52;10.55;;;11.30;99.90;;;;;;5093630;28;20058;-59
2022/06/05 00:48:27;;;;;;;19.45;10.57;;;11.30;99.90;;;;;;5092916;28;21997;-59
2022/06/05 00:50:53;;;;;;;14.75;10.65;;;11.30;99.90;;;;;;5111494;28;20054;-60
2022/06/05 00:53:19;;;;;;;16.45;10.50;;;11.30;99.90;;;;;;5093140;28;20439;-59
2022/06/05 00:55:50;;;;;;;15.80;10.55;;;11.30;99.90;;;;;;5093216;28;20048;-59
2022/06/05 00:58:18;;;;;;;17.30;10.70;;;11.30;99.90;;;;;;5092914;28;20051;-59
2022/06/05 01:00:48;;;;;;;13.20;9.98;;;11.30;99.90;;;;;;5111517;28;20043;-59
2022/06/05 01:03:16;;;;;;;15.07;10.35;;;11.30;99.90;;;;;;5092988;28;20048;-60
2022/06/05 01:05:42;;;;;;;17.20;10.88;;;11.30;99.90;;;;;;5093506;28;20396;-60
2022/06/05 01:08:10;;;;;;;14.25;9.95;;;11.30;99.90;;;;;;5093323;28;20392;-59
2022/06/05 01:10:49;;;;;;;14.38;9.82;;;11.30;99.90;;;;;;5110998;28;20436;-59
2022/06/05 01:13:37;;;;;;;14.10;9.88;;;11.30;99.90;;;;;;5110574;28;20176;-62
2022/06/05 01:16:28;;;;;;;19.15;10.25;;;11.30;99.90;;;;;;5111301;28;20480;-60
2022/06/05 01:19:19;;;;;;;15.35;10.27;;;11.20;99.90;;;;;;5093409;28;20553;-60
2022/06/05 01:22:25;;;;;;;16.52;10.23;;;11.20;99.90;;;;;;5106372;28;20063;-60
2022/06/05 01:25:14;;;;;;;12.20;8.98;;;11.20;99.90;;;;;;5111411;28;20070;-60
2022/06/05 01:27:43;;;;;;;15.02;10.00;;;11.20;99.90;;;;;;5111103;28;20048;-59
2022/06/05 01:30:17;;;;;;;12.15;9.98;;;11.20;99.90;;;;;;5111102;28;20044;-59
2022/06/05 01:32:57;;;;;;;17.13;9.98;;;11.20;99.90;;;;;;5111363;28;20043;-59
2022/06/05 01:35:44;;;;;;;17.45;9.38;;;11.20;99.90;;;;;;5110832;28;20086;-60
2022/06/05 01:38:19;;;;;;;16.38;9.23;;;11.10;99.90;;;;;;5075898;28;20507;-59
2022/06/05 01:40:55;;;;;;;14.07;9.25;;;11.20;99.90;;;;;;5111091;28;20444;-60
2022/06/05 01:43:37;;;;;;;15.40;9.10;;;11.10;99.90;;;;;;5110449;28;20384;-60
2022/06/05 01:46:10;;;;;;;12.38;9.50;;;11.20;99.90;;;;;;5095374;28;20062;-59
2022/06/05 01:48:44;;;;;;;16.58;10.23;;;11.20;99.90;;;;;;5095949;28;20511;-59
2022/06/05 01:51:23;;;;;;;14.18;9.57;;;11.20;99.90;;;;;;5114354;28;20500;-59
2022/06/05 01:53:51;;;;;;;12.15;8.85;;;11.20;99.90;;;;;;5114699;28;20043;-60
2022/06/05 01:56:23;;;;;;;13.95;8.63;;;11.20;99.90;;;;;;5114629;28;20044;-59
2022/06/05 01:59:04;;;;;;;14.35;9.60;;;11.20;99.90;;;;;;5114541;28;20126;-59
2022/06/05 02:01:37;;;;;;;18.42;10.25;;;11.20;99.90;;;;;;5114190;28;20039;-59
2022/06/05 02:04:28;;;;;;;19.17;9.90;;;11.20;99.90;;;;;;5114356;28;20055;-60
2022/06/05 02:06:58;;;;;;;17.77;10.05;;;11.20;99.90;;;;;;5114234;28;20047;-59
2022/06/05 02:10:04;;;;;;;15.60;9.60;;;11.20;99.90;;;;;;5113977;28;20040;-58
2022/06/05 02:12:31;;;;;;;17.67;9.38;;;11.20;99.90;;;;;;5095493;28;20644;-60
2022/06/05 02:14:57;;;;;;;13.85;10.02;;;11.20;99.90;;;;;;5096038;28;20172;-58
2022/06/05 02:17:23;;;;;;;15.43;9.98;;;11.20;99.90;;;;;;5113768;28;20043;-62
2022/06/05 02:19:49;;;;;;;13.77;9.50;;;11.20;99.90;;;;;;5114173;28;20122;-59
2022/06/05 02:22:29;;;;;;;14.43;9.75;;;11.20;99.90;;;;;;5114578;28;20070;-58
2022/06/05 02:24:55;;;;;;;18.90;10.38;;;11.20;99.90;;;;;;5096062;28;20057;-59
2022/06/05 02:27:23;;;;;;;18.00;10.20;;;11.30;99.90;;;;;;5114246;28;20058;-59
2022/06/05 02:29:50;;;;;;;14.48;9.43;;;11.30;99.90;;;;;;5113971;28;20044;-58
2022/06/05 02:32:46;;;;;;;15.45;9.90;;;11.30;99.90;;;;;;5095991;28;20453;-59
2022/06/05 02:35:22;;;;;;;;;;;11.30;99.90;;;;;;5113990;28;20051;-60
2022/06/05 02:38:06;;;;;;;18.73;10.65;;;11.30;99.90;;;;;;5113621;28;19920;-59
2022/06/05 02:40:51;;;;;;;15.23;10.18;;;11.30;99.90;;;;;;5095199;28;20043;-61
2022/06/05 02:43:29;;;;;;;19.33;10.18;;;11.30;99.90;;;;;;5113571;28;20134;-59
2022/06/05 02:46:17;;;;;;;18.25;11.32;;;11.30;99.90;;;;;;5113423;28;20123;-59
2022/06/05 02:49:19;;;;;;;14.77;10.50;;;11.30;99.90;;;;;;5113180;28;20047;-58
2022/06/05 02:51:46;;;;;;;18.52;10.30;;;11.30;99.90;;;;;;5106509;28;20243;-59
2022/06/05 02:54:24;;;;;;;17.92;11.20;;;11.40;99.90;;;;;;5113325;28;20491;-60
2022/06/05 02:56:50;;;;;;;19.15;10.65;;;11.30;99.90;;;;;;5093395;28;20044;-59
2022/06/05 02:59:17;;;;;;;19.48;11.63;;;11.40;99.90;;;;;;5095259;28;20131;-59
2022/06/05 03:04:28;;;;;;;22.30;11.30;;;11.40;99.90;;;;;;5113534;28;20052;-63
2022/06/05 03:06:54;;;;;;;16.95;10.73;;;11.40;99.90;;;;;;5113451;28;20063;-60
2022/06/05 03:09:20;;;;;;;14.40;10.20;;;11.40;99.90;;;;;;5095151;28;20131;-59
2022/06/05 03:11:46;;;;;;;20.08;11.18;;;11.40;99.90;;;;;;5094680;28;20138;-60
2022/06/05 03:14:12;;;;;;;22.52;11.93;;;11.40;99.90;;;;;;5078272;28;20095;-60
2022/06/05 03:16:37;;;;;;;18.08;10.77;;;11.40;99.90;;;;;;5112666;28;20040;-60
2022/06/05 03:19:03;;;;;;;24.52;11.85;;;11.40;99.90;;;;;;5094895;28;20039;-60
2022/06/05 03:21:33;;;;;;;24.77;11.82;;;11.40;99.90;;;;;;5094841;28;20129;-61
2022/06/05 03:23:59;;;;;;;16.30;11.15;;;11.40;99.90;;;;;;5112966;28;20116;-60
2022/06/05 03:26:26;;;;;;;18.13;11.88;;;11.30;99.90;;;;;;5113033;28;20047;-60
2022/06/05 03:28:52;;;;;;;17.33;11.00;;;11.40;99.90;;;;;;5094445;28;20309;-59
2022/06/05 03:31:17;;;;;;;19.90;11.70;;;11.40;99.90;;;;;;5113067;28;20048;-59
2022/06/05 03:33:43;;;;;;;16.88;11.32;;;11.40;99.90;;;;;;5094254;28;20066;-60
2022/06/05 03:36:11;;;;;;;19.13;11.88;;;11.40;99.90;;;;;;5077822;28;20047;-59
2022/06/05 03:38:38;;;;;;;22.10;12.05;;;11.40;99.90;;;;;;5094330;28;20047;-60
2022/06/05 03:41:04;;;;;;;18.85;12.20;;;11.50;99.90;;;;;;5094818;28;20051;-60
2022/06/05 03:43:31;;;;;;;21.08;13.07;;;11.50;99.90;;;;;;5112518;28;20047;-60
2022/06/05 03:46:16;;;;;;;29.33;13.00;;;11.50;99.90;;;;;;5112406;28;20480;-61
2022/06/05 03:48:42;;;;;;;19.73;12.88;;;11.50;99.90;;;;;;5112323;28;20043;-59
2022/06/05 03:51:21;;;;;;;19.42;12.73;;;11.50;99.90;;;;;;5112469;28;20055;-60
2022/06/05 03:53:48;;;;;;;20.67;12.55;;;11.60;99.90;;;;;;5112052;28;20093;-59
2022/06/05 03:56:20;;;;;;;20.30;12.23;;;11.60;99.90;;;;;;5094418;28;20054;-60
2022/06/05 03:58:47;;;;;;;20.08;11.82;;;11.60;99.90;;;;;;5094112;28;20051;-59
2022/06/05 04:01:16;;;;;;;20.90;12.57;;;11.70;99.90;;;;;;5112281;28;20097;-59
2022/06/05 04:03:43;;;;;;;19.85;11.82;;;11.70;99.90;;;;;;5111785;28;20128;-60
2022/06/05 04:06:11;;;;;;;20.85;12.07;;;11.70;99.90;;;;;;5112464;28;20051;-60
2022/06/05 04:08:38;;;;;;;18.63;11.60;;;11.70;99.90;;;;;;5093628;28;20047;-63
2022/06/05 04:11:11;;;;;;;20.92;12.20;;;11.70;99.90;;;;;;5112264;28;20043;-60
2022/06/05 04:13:37;;;;;;;21.30;12.10;;;11.70;99.90;;;;;;5093695;28;20507;-63
2022/06/05 04:16:15;;;;;;;16.52;11.02;;;11.80;99.90;;;;;;5112179;28;20043;-59
2022/06/05 04:18:40;;;;;;;17.63;12.30;;;11.80;99.90;;;;;;5093423;28;20127;-59
2022/06/05 04:21:08;;;;;;;17.45;10.95;;;11.90;99.90;;;;;;5093575;28;20130;-59
2022/06/05 04:23:34;;;;;;;17.98;11.75;;;11.90;99.90;;;;;;5112133;28;20134;-59
2022/06/05 04:26:00;;;;;;;19.60;11.90;;;11.90;99.90;;;;;;5093352;28;20046;-60
2022/06/05 04:28:26;;;;;;;20.92;11.27;;;12.00;99.90;;;;;;5093725;28;20043;-59
2022/06/05 04:30:51;;;;;;;19.85;11.95;;;12.00;99.90;;;;;;5093678;28;20389;-61
2022/06/05 04:33:18;;;;;;;18.95;12.32;;;12.00;99.90;;;;;;5093656;28;20044;-60
2022/06/05 04:35:44;;;;;;;18.23;13.13;;;12.10;99.90;;;;;;5111133;28;20043;-60
2022/06/05 04:38:11;;;;;;;16.13;10.35;;;12.20;99.90;;;;;;5093915;28;20176;-60
2022/06/05 04:40:36;;;;;;;20.05;12.15;;;12.30;99.90;;;;;;5093625;28;20370;-60
2022/06/05 04:43:02;;;;;;;17.20;12.00;;;12.40;99.90;;;;;;5111231;28;20058;-60
2022/06/05 04:45:28;;;;;;;25.88;12.52;;;12.50;99.90;;;;;;5093574;28;20035;-60
2022/06/05 04:47:53;;;;;;;19.00;12.65;;;12.60;99.90;;;;;;5076602;28;20051;-60
2022/06/05 04:50:19;;;;;;;17.38;11.00;;;13.10;99.90;;;;;;5093506;28;20079;-61
2022/06/05 04:52:45;;;;;;;16.02;11.25;;;13.60;99.90;;;;;;5093205;28;20458;-61
2022/06/05 04:55:11;;;;;;;16.20;10.50;;;14.20;99.90;;;;;;5111667;28;20047;-60
2022/06/05 04:57:37;;;;;;;13.20;9.95;;;14.60;99.90;;;;;;5111662;28;20055;-60
2022/06/05 05:00:05;;;;;;;15.75;9.55;;;15.00;99.90;;;;;;5092833;28;20073;-60
2022/06/05 05:02:31;;;;;;;13.05;9.45;;;15.00;99.90;;;;;;5111034;28;20054;-62
2022/06/05 05:04:57;;;;;;;14.38;10.25;;;14.90;99.90;;;;;;5092919;28;20047;-61
2022/06/05 05:07:23;;;;;;;14.27;9.95;;;14.80;99.90;;;;;;5111738;28;20168;-60
2022/06/05 05:09:48;;;;;;;19.50;10.70;;;14.60;99.90;;;;;;5092764;28;20510;-60
2022/06/05 05:12:15;;;;;;;14.15;10.02;;;14.40;99.90;;;;;;5076152;28;20059;-59
2022/06/05 05:14:42;;;;;;;15.23;10.27;;;14.30;99.90;;;;;;5093128;28;20477;-60
2022/06/05 05:17:08;;;;;;;13.35;10.57;;;14.20;99.90;;;;;;5059272;28;20044;-60
2022/06/05 05:19:33;;;;;;;16.13;11.15;;;14.10;99.90;;;;;;5093313;28;20052;-60
2022/06/05 05:21:59;;;;;;;13.05;10.50;;;14.20;99.90;;;;;;5114560;28;20044;-60
2022/06/05 05:24:25;;;;;;;14.15;10.60;;;14.10;99.90;;;;;;5115216;28;20055;-60
2022/06/05 05:26:51;;;;;;;13.82;10.55;;;14.10;99.90;;;;;;5096638;28;20051;-61
2022/06/05 05:29:17;;;;;;;15.68;10.30;;;14.20;99.90;;;;;;5096929;28;20042;-60
2022/06/05 05:31:45;;;;;;;16.98;10.85;;;14.40;99.90;;;;;;5096945;28;20047;-59
2022/06/05 05:34:13;;;;;;;12.65;9.98;;;14.60;99.90;;;;;;5113996;28;20089;-59
2022/06/05 05:36:39;;;;;;;13.32;9.63;;;15.30;99.90;;;;;;5096720;28;20044;-60
2022/06/05 05:42:08;;;;;;;15.60;8.50;;;17.10;99.90;;;;;;5082462;28;20059;-63
2022/06/05 05:44:47;;;;;;;12.40;8.35;;;18.10;99.90;;;;;;5096452;28;20075;-59
2022/06/05 05:47:19;;;;;;;12.00;7.80;;;18.70;99.90;;;;;;5096277;28;20059;-60
2022/06/05 05:49:45;;;;;;;11.20;7.90;;;19.10;99.90;;;;;;5079327;28;20085;-60
2022/06/05 05:52:11;;;;;;;9.80;7.60;;;19.10;99.90;;;;;;5114267;28;20047;-58
2022/06/05 05:54:38;;;;;;;12.60;7.90;;;18.80;99.90;;;;;;5114222;28;20153;-59
2022/06/05 05:57:04;;;;;;;10.68;7.95;;;19.00;99.90;;;;;;5095953;28;20104;-60
2022/06/05 05:59:30;;;;;;;9.02;7.20;;;19.00;99.90;;;;;;5114254;28;20085;-59
2022/06/05 06:01:56;;;;;;;10.60;7.93;;;19.40;99.90;;;;;;5079079;28;20498;-59
2022/06/05 06:04:21;;;;;;;11.20;7.40;;;19.20;99.90;;;;;;5114189;28;20068;-59
2022/06/05 06:06:51;;;;;;;12.70;7.90;;;19.10;99.90;;;;;;5114644;28;20079;-59
2022/06/05 06:09:17;;;;;;;9.40;8.00;;;18.80;99.90;;;;;;5078676;28;20541;-59
2022/06/05 06:11:43;;;;;;;12.23;7.80;;;18.60;99.90;;;;;;5114080;28;20056;-59
2022/06/05 06:14:09;;;;;;;11.35;7.65;;;18.40;99.90;;;;;;5095704;28;20055;-59
2022/06/05 06:16:35;;;;;;;12.63;8.10;;;18.20;99.90;;;;;;5114463;28;20051;-59
2022/06/05 06:19:02;;;;;;;14.07;7.57;;;18.00;99.90;;;;;;5113987;28;20492;-60
2022/06/05 06:21:28;;;;;;;13.30;8.45;;;17.80;99.90;;;;;;5114620;28;20048;-60
2022/06/05 06:23:54;;;;;;;11.05;8.25;;;17.50;99.90;;;;;;5078233;28;20070;-64
2022/06/05 06:26:20;;;;;;;11.02;8.13;;;17.30;99.90;;;;;;5113051;28;20477;-59
2022/06/05 06:28:46;;;;;;;10.80;8.32;;;17.20;99.90;;;;;;5113704;28;20044;-58
2022/06/05 06:31:14;;;;;;;13.20;8.30;;;17.10;99.90;;;;;;5113629;28;20496;-58
2022/06/05 06:33:40;;;;;;;12.88;8.65;;;17.10;99.90;;;;;;5095595;28;20048;-59
2022/06/05 06:36:12;;;;;;;11.00;7.90;;;17.10;99.90;;;;;;5113186;28;20055;-60
2022/06/05 06:38:40;;;;;;;10.95;8.32;;;17.20;99.90;;;;;;5113957;28;20084;-59
2022/06/05 06:41:17;;;;;;;11.52;8.02;;;17.30;99.90;;;;;;5113468;28;20043;-59
2022/06/05 06:43:44;;;;;;;9.75;8.10;;;17.30;99.90;;;;;;5095267;28;20504;-60
2022/06/05 06:46:11;;;;;;;9.38;7.88;;;17.30;99.90;;;;;;5113250;28;20051;-59
2022/06/05 06:48:37;;;;;;;12.48;7.93;;;17.40;99.90;;;;;;5112977;28;20055;-59
2022/06/05 06:51:03;;;;;;;11.88;8.00;;;17.30;99.90;;;;;;5078296;28;20047;-59
2022/06/05 06:53:31;;;;;;;11.65;8.55;;;17.40;99.90;;;;;;5113479;28;20047;-59
2022/06/05 06:55:57;;;;;;;11.63;7.93;;;17.40;99.90;;;;;;5095374;28;20051;-60
2022/06/05 06:58:22;;;;;;;13.88;7.72;;;17.30;99.90;;;;;;5113295;28;20128;-58
2022/06/05 07:00:48;;;;;;;8.90;7.95;;;17.40;99.90;;;;;;5113245;28;20043;-60
2022/06/05 07:03:14;;;;;;;11.10;7.63;;;17.40;99.90;;;;;;5077731;28;20047;-58
2022/06/05 07:05:41;;;;;;;9.40;7.53;;;17.40;99.90;;;;;;5094842;28;20112;-59
2022/06/05 07:08:08;;;;;;;9.75;7.95;;;17.40;99.90;;;;;;5112751;28;20047;-60
2022/06/05 07:10:34;;;;;;;8.85;7.63;;;17.50;99.90;;;;;;5112640;28;20047;-59
2022/06/05 07:13:00;;;;;;;9.65;7.20;;;17.70;99.90;;;;;;5112482;28;20507;-62
2022/06/05 07:15:33;;;;;;;9.77;7.68;;;18.10;99.90;;;;;;5113079;28;20122;-58
2022/06/05 07:18:03;;;;;;;9.13;7.18;;;18.40;99.90;;;;;;5094488;28;20052;-58
2022/06/05 07:20:35;;;;;;;9.60;6.93;;;18.80;99.90;;;;;;5094532;28;20040;-59
2022/06/05 07:23:02;;;;;;;11.20;8.02;;;19.10;99.90;;;;;;5094609;28;20055;-63
2022/06/05 07:25:29;;;;;;;9.88;7.78;;;19.40;99.90;;;;;;5094659;28;20126;-59
2022/06/05 07:27:55;;;;;;;10.13;7.40;;;19.40;99.90;;;;;;5112795;28;20568;-59
2022/06/05 07:30:21;;;;;;;9.45;7.47;;;19.80;99.90;;;;;;5112092;28;20048;-58
2022/06/05 07:32:47;;;;;;;8.15;7.22;;;20.10;99.90;;;;;;5077822;28;20047;-58
2022/06/05 07:35:13;;;;;;;9.55;6.93;;;20.20;99.90;;;;;;5112570;28;20055;-59
2022/06/05 07:37:40;;;;;;;9.05;7.07;;;20.30;99.90;;;;;;5112805;28;20495;-60
2022/06/05 07:40:07;;;;;;;8.40;7.28;;;20.50;99.90;;;;;;5112174;28;20050;-63
2022/06/05 07:42:38;;;;;;;9.25;6.60;;;20.50;99.90;;;;;;5077137;28;20051;-59
2022/06/05 07:45:05;;;;;;;8.75;7.13;;;20.60;99.90;;;;;;5112671;28;20051;-60
2022/06/05 07:47:31;;;;;;;9.27;7.47;;;20.80;99.90;;;;;;5093922;28;20040;-59
2022/06/05 07:49:57;;;;;;;11.05;7.68;;;21.00;99.90;;;;;;5112327;28;20043;-60
2022/06/05 07:55:07;;;;;;;;;;;21.10;99.90;;;;;;5112634;28;20054;-64
2022/06/05 07:57:33;;;;;;;10.55;7.00;;;21.20;99.90;;;;;;5112600;28;19919;-60
2022/06/05 07:59:59;;;;;;;7.68;6.88;;;21.30;99.90;;;;;;5094068;28;20465;-61
2022/06/05 08:02:27;;;;;;;8.02;7.03;;;21.50;99.90;;;;;;5093726;28;20577;-60
2022/06/05 08:04:54;;;;;;;10.25;7.65;;;21.40;99.90;;;;;;5112313;28;20055;-64
2022/06/05 08:07:22;;;;;;;7.93;6.60;;;21.50;99.90;;;;;;5111908;28;20446;-60
2022/06/05 08:09:49;;;;;;;8.23;7.00;;;21.60;99.90;;;;;;5112028;28;20047;-61
2022/06/05 08:12:18;;;;;;;9.35;6.68;;;21.70;99.90;;;;;;5111279;28;20056;-60
2022/06/05 08:14:46;;;;;;;9.27;6.82;;;21.70;99.90;;;;;;5112157;28;20051;-60
2022/06/05 08:17:14;;;;;;;9.18;6.95;;;21.70;99.90;;;;;;5111763;28;20047;-62
2022/06/05 08:19:41;;;;;;;10.05;6.80;;;21.90;99.90;;;;;;5112118;28;20074;-60
2022/06/05 08:22:08;;;;;;;7.55;6.60;;;22.00;99.90;;;;;;5076878;28;20047;-59
2022/06/05 08:24:34;;;;;;;8.27;6.50;;;22.10;99.90;;;;;;5093472;28;20515;-60
2022/06/05 08:27:00;;;;;;;6.47;5.70;;;22.10;99.90;;;;;;5111815;28;20087;-59
2022/06/05 08:29:26;;;;;;;7.60;5.90;;;22.10;99.90;;;;;;5111002;28;20040;-61
2022/06/05 08:31:53;;;;;;;8.15;6.60;;;22.20;99.90;;;;;;5093993;28;20097;-60
2022/06/05 08:34:19;;;;;;;8.18;6.35;;;22.40;99.90;;;;;;5093442;28;20055;-61
2022/06/05 08:36:45;;;;;;;8.00;7.13;;;22.50;99.90;;;;;;5111925;28;20043;-60
2022/06/05 08:42:21;;;;;;;7.03;5.88;;;22.60;99.90;;;;;;5111412;28;20083;-60
2022/06/05 08:45:23;;;;;;;7.90;6.40;;;22.50;99.90;;;;;;5093896;28;20074;-60
2022/06/05 08:47:53;;;;;;;8.95;6.35;;;22.40;99.90;;;;;;5024849;28;20056;-59
2022/06/05 08:50:35;;;;;;;8.55;6.53;;;22.30;99.90;;;;;;5111321;28;20036;-58
2022/06/05 08:53:17;;;;;;;7.07;6.22;;;22.40;99.90;;;;;;5111361;28;20489;-58
2022/06/05 08:55:46;;;;;;;6.70;5.88;;;22.50;99.90;;;;;;5095748;28;20051;-59
2022/06/05 08:58:37;;;;;;;7.30;5.65;;;22.60;99.90;;;;;;5097731;28;20136;-59
2022/06/05 09:01:10;;;;;;;8.85;6.40;;;22.70;99.90;;;;;;5116096;28;20039;-58
2022/06/05 09:03:46;;;;;;;8.13;5.70;;;22.70;99.90;;;;;;5115525;28;20114;-59
2022/06/05 09:06:41;;;;;;;6.53;5.53;;;22.90;99.90;;;;;;5115670;28;20044;-59
2022/06/05 09:09:11;;;;;;;;;;;23.00;99.90;;;;;;5102248;28;20101;-59
2022/06/05 09:11:48;;;;;;;8.98;5.50;;;23.10;99.90;;;;;;5080258;28;20015;-59
2022/06/05 09:14:25;;;;;;;7.00;5.35;;;23.20;99.90;;;;;;5115681;28;20128;-59
2022/06/05 09:16:56;;;;;;;7.10;5.93;;;23.20;99.90;;;;;;5115590;28;20043;-58
2022/06/05 09:19:27;;;;;;;7.22;5.35;;;23.10;99.90;;;;;;5096927;28;20063;-59
2022/06/05 09:22:13;;;;;;;7.63;5.80;;;22.90;99.90;;;;;;5115460;28;20090;-59
2022/06/05 09:24:51;;;;;;;7.75;5.60;;;22.80;99.90;;;;;;5096853;28;20118;-59
2022/06/05 09:27:50;;;;;;;7.07;5.28;;;22.70;99.90;;;;;;5097121;28;20055;-59
2022/06/05 09:30:29;;;;;;;9.00;6.03;;;22.70;99.90;;;;;;5115318;28;20100;-59
2022/06/05 09:33:14;;;;;;;7.90;5.40;;;22.70;99.90;;;;;;5115391;28;20391;-59
2022/06/05 09:36:00;;;;;;;6.65;5.60;;;22.60;99.90;;;;;;5114820;28;20055;-59
2022/06/05 09:38:27;;;;;;;9.52;5.60;;;22.60;99.90;;;;;;5096898;28;20120;-59
2022/06/05 09:41:34;;;;;;;7.78;5.30;;;22.70;99.90;;;;;;5114928;28;20052;-58
2022/06/05 09:44:28;;;;;;;6.35;5.43;;;22.90;99.90;;;;;;5101736;28;20087;-59
2022/06/05 09:46:56;;;;;;;8.37;5.13;;;23.10;99.90;;;;;;5115207;28;20051;-58
2022/06/05 09:49:34;;;;;;;7.65;5.45;;;23.10;99.90;;;;;;5114852;28;20412;-62
2022/06/05 09:52:19;;;;;;;5.85;4.90;;;23.10;99.90;;;;;;5115084;28;20576;-59
2022/06/05 09:55:18;;;;;;;7.05;5.38;;;23.20;99.90;;;;;;5062610;28;20074;-58
2022/06/05 10:00:53;;;;;;;8.70;5.47;;;23.20;99.90;;;;;;5096242;28;20051;-59
2022/06/05 10:03:42;;;;;;;6.35;5.10;;;23.30;99.90;;;;;;5114349;28;20088;-59
2022/06/05 10:06:20;;;;;;;9.02;5.60;;;23.30;99.90;;;;;;5113449;28;20650;-59
2022/06/05 10:09:12;;;;;;;7.63;5.60;;;23.40;99.90;;;;;;5113862;28;20096;-59
2022/06/05 10:11:47;;;;;;;5.95;4.85;;;23.50;99.90;;;;;;5113946;28;20050;-57
2022/06/05 10:14:34;;;;;;;6.70;4.80;;;23.40;99.90;;;;;;5114003;28;20413;-59
2022/06/05 10:17:35;;;;;;;8.43;5.07;;;23.30;99.90;;;;;;5096441;28;20114;-60
2022/06/05 10:20:12;;;;;;;6.60;4.57;;;23.40;99.90;;;;;;5114176;28;20041;-59
2022/06/05 10:22:57;;;;;;;6.38;4.65;;;23.30;99.90;;;;;;5113635;28;20086;-59
2022/06/05 10:25:57;;;;;;;6.45;4.55;;;23.40;99.90;;;;;;5113733;28;20040;-59
2022/06/05 10:28:31;;;;;;;6.45;4.85;;;23.40;99.90;;;;;;5114146;28;20075;-59
2022/06/05 10:31:04;;;;;;;8.85;4.57;;;23.50;99.90;;;;;;5095915;28;20051;-60
2022/06/05 10:33:39;;;;;;;8.90;4.93;;;23.60;99.90;;;;;;5113783;28;20059;-61
2022/06/05 10:36:23;;;;;;;6.57;4.72;;;23.70;99.90;;;;;;5095937;28;20468;-59
2022/06/05 10:38:52;;;;;;;;;;;23.80;99.90;;;;;;5096120;28;20123;-59
2022/06/05 10:41:23;;;;;;;5.63;4.47;;;23.90;99.90;;;;;;5113757;28;20002;-59
2022/06/05 10:44:19;;;;;;;6.88;4.97;;;23.90;99.90;;;;;;5095103;28;20431;-59
2022/06/05 10:47:14;;;;;;;6.03;5.00;;;23.80;99.90;;;;;;5113440;28;20047;-60
2022/06/05 10:50:07;;;;;;;5.78;4.38;;;23.70;99.90;;;;;;5058693;28;20081;-60
2022/06/05 10:52:55;;;;;;;6.63;4.45;;;23.80;99.90;;;;;;5095546;28;20473;-62
2022/06/05 10:55:34;;;;;;;5.90;4.75;;;23.90;99.90;;;;;;5113599;28;20441;-59
2022/06/05 10:58:22;;;;;;;6.78;5.03;;;23.90;99.90;;;;;;5095530;28;20047;-60
2022/06/05 11:00:50;;;;;;;7.95;4.32;;;23.90;99.90;;;;;;5095139;28;20047;-60
2022/06/05 11:03:27;;;;;;;6.70;5.07;;;23.90;99.90;;;;;;5113062;28;20055;-60
2022/06/05 11:05:52;;;;;;;6.60;4.88;;;23.70;99.90;;;;;;5094830;28;20051;-60
2022/06/05 11:08:28;;;;;;;5.13;4.45;;;23.80;99.90;;;;;;5112962;28;20070;-60
2022/06/05 11:14:42;;;;;;;5.78;4.57;;;23.90;99.90;;;;;;5112270;28;20098;-60
2022/06/05 11:17:39;;;;;;;6.13;4.72;;;23.90;99.90;;;;;;5112957;28;20052;-61
2022/06/05 11:20:06;;;;;;;5.25;4.00;;;23.90;99.90;;;;;;5024423;28;20101;-60
2022/06/05 11:22:34;;;;;;;4.45;4.03;;;23.90;99.90;;;;;;5113309;28;20048;-60
2022/06/05 11:25:17;;;;;;;8.55;4.18;;;23.90;99.90;;;;;;5112907;28;20044;-60
2022/06/05 11:27:51;;;;;;;6.57;4.15;;;23.90;99.90;;;;;;5112981;28;20459;-60
2022/06/05 11:30:20;;;;;;;7.05;4.47;;;24.00;99.90;;;;;;5113038;28;20047;-61
2022/06/05 11:33:08;;;;;;;8.05;4.20;;;24.10;99.90;;;;;;5112792;28;20050;-61
2022/06/05 11:35:55;;;;;;;5.78;4.20;;;24.10;99.90;;;;;;5078029;28;20450;-60
2022/06/05 11:38:43;;;;;;;8.82;4.82;;;24.10;99.90;;;;;;5097014;28;20464;-61
2022/06/05 11:41:20;;;;;;;7.38;4.30;;;24.10;99.90;;;;;;5095001;28;20058;-60
2022/06/05 11:44:11;;;;;;;4.80;3.92;;;24.10;99.90;;;;;;5077239;28;20111;-61
2022/06/05 11:47:02;;;;;;;6.38;4.10;;;24.20;99.90;;;;;;5094332;28;20134;-61
2022/06/05 11:49:39;;;;;;;6.13;3.90;;;24.20;99.90;;;;;;5077405;28;20039;-60
2022/06/05 11:52:32;;;;;;;5.80;3.90;;;24.20;99.90;;;;;;5112859;28;20086;-61
2022/06/05 11:55:11;;;;;;;6.57;4.40;;;24.20;99.90;;;;;;5077799;28;20048;-61
2022/06/05 11:57:49;;;;;;;5.13;3.90;;;24.10;99.90;;;;;;5094652;28;20093;-60
2022/06/05 12:00:20;;;;;;;5.03;3.90;;;24.20;99.90;;;;;;5112842;28;20497;-60
2022/06/05 12:03:04;;;;;;;7.50;4.05;;;24.30;99.90;;;;;;5112310;28;20439;-62
2022/06/05 12:05:54;;;;;;;4.97;3.97;;;24.40;99.90;;;;;;5094675;28;20052;-61
2022/06/05 12:08:36;;;;;;;6.30;4.32;;;24.40;99.90;;;;;;5077643;28;20048;-60
2022/06/05 12:11:11;;;;;;;5.07;4.07;;;24.30;99.90;;;;;;5112145;28;20092;-59
2022/06/05 12:13:52;;;;;;;5.70;3.88;;;24.30;99.90;;;;;;5093971;28;20051;-58
2022/06/05 12:16:40;;;;;;;4.68;3.90;;;24.20;99.90;;;;;;5112494;28;20396;-59
2022/06/05 12:19:17;;;;;;;6.03;3.70;;;24.30;99.90;;;;;;5093710;28;20039;-59
2022/06/05 12:22:02;;;;;;;6.22;4.13;;;24.20;99.90;;;;;;5111899;28;20515;-59
2022/06/05 12:24:43;;;;;;;5.70;4.18;;;24.30;99.90;;;;;;5093889;28;20205;-59
2022/06/05 12:27:16;;;;;;;6.30;4.07;;;24.30;99.90;;;;;;5112217;28;20040;-61
2022/06/05 12:30:14;;;;;;;5.57;4.00;;;24.30;99.90;;;;;;5093825;28;20048;-59
2022/06/05 12:32:47;;;;;;;6.80;3.95;;;24.30;99.90;;;;;;5104873;28;20104;-59
2022/06/05 12:35:26;;;;;;;6.50;3.70;;;24.40;99.90;;;;;;5077192;28;20143;-60
2022/06/05 12:38:15;;;;;;;5.15;3.30;;;24.40;99.90;;;;;;5093467;28;20051;-60
2022/06/05 12:40:51;;;;;;;5.10;3.80;;;24.40;99.90;;;;;;5112160;28;20171;-60
2022/06/05 12:43:32;;;;;;;5.93;4.03;;;24.50;99.90;;;;;;5077057;28;20051;-59
2022/06/05 12:46:30;;;;;;;6.80;3.90;;;24.60;99.90;;;;;;5111810;28;20048;-60
2022/06/05 12:49:23;;;;;;;5.30;4.00;;;24.50;99.90;;;;;;5093497;28;20046;-60
2022/06/05 12:52:01;;;;;;;5.28;3.72;;;24.60;99.90;;;;;;5093797;28;20048;-59
2022/06/05 12:54:41;;;;;;;5.07;3.90;;;24.50;99.90;;;;;;5111866;28;20047;-60
2022/06/05 12:57:15;;;;;;;6.13;4.00;;;24.60;99.90;;;;;;5111406;28;20480;-59
2022/06/05 12:59:50;;;;;;;6.05;4.47;;;24.50;99.80;;;;;;5112001;28;20110;-59
2022/06/05 13:02:45;;;;;;;5.60;3.97;;;24.50;99.90;;;;;;5094021;28;20473;-59
2022/06/05 13:05:26;;;;;;;6.35;3.97;;;24.40;99.80;;;;;;5093216;28;20519;-58
2022/06/05 13:08:11;;;;;;;6.05;4.03;;;24.40;99.90;;;;;;5093611;28;20043;-59
2022/06/05 13:10:48;;;;;;;6.15;3.88;;;24.40;99.90;;;;;;5111460;28;20047;-61
2022/06/05 13:13:28;;;;;;;6.63;4.53;;;24.40;99.90;;;;;;5093255;28;20070;-60
2022/06/05 13:16:01;;;;;;;5.35;4.47;;;24.40;99.90;;;;;;5111218;28;20496;-59
2022/06/05 13:19:04;;;;;;;5.60;3.72;;;24.30;99.90;;;;;;5111703;28;20048;-59
2022/06/05 13:21:37;;;;;;;5.47;3.78;;;24.30;99.90;;;;;;5111752;28;20083;-59
2022/06/05 13:24:39;;;;;;;6.60;4.03;;;24.30;99.90;;;;;;5111555;28;20048;-61
2022/06/05 13:27:14;;;;;;;7.35;4.18;;;24.30;99.90;;;;;;5076601;28;20043;-59
2022/06/05 13:29:55;;;;;;;5.07;3.90;;;24.20;99.90;;;;;;5093562;28;20052;-59
2022/06/05 13:32:40;;;;;;;5.03;3.95;;;24.20;99.90;;;;;;5111716;28;20056;-60
2022/06/05 13:35:41;;;;;;;5.15;3.92;;;24.30;99.90;;;;;;5093390;28;20454;-59